Time;durP1;ratioP1;P1;durP2;ratioP2;P2;SDS_P1;SDS_P2;PMS_P1;PMS_P2;Temp;Humidity;BMP_temperature;BMP_pressure;BME280_temperature;BME280_humidity;BME280_pressure;Samples;Min_cycle;Max_cycle;Signal;HPM_P1;HPM_P2
2022/04/22 00:02:06;;;;;;;1.50;1.50;;;8.20;99.90;;;;;;6173099;28;20597;-65
2022/04/22 00:05:13;;;;;;;1.58;1.58;;;8.20;99.90;;;;;;6148106;28;20234;-67
2022/04/22 00:08:21;;;;;;;1.52;1.52;;;8.10;99.90;;;;;;6172836;28;20234;-66
2022/04/22 00:11:31;;;;;;;1.83;1.75;;;8.10;99.90;;;;;;6165397;28;20269;-65
2022/04/22 00:14:42;;;;;;;1.90;1.90;;;8.10;99.90;;;;;;6172618;28;20235;-66
2022/04/22 00:17:47;;;;;;;2.05;2.05;;;8.00;99.90;;;;;;6173097;28;20230;-66
2022/04/22 00:20:52;;;;;;;2.00;1.90;;;8.00;99.90;;;;;;6173660;28;20616;-66
2022/04/22 00:23:58;;;;;;;2.58;1.80;;;7.90;99.90;;;;;;6171990;28;20227;-67
2022/04/22 00:27:05;;;;;;;1.67;1.67;;;7.90;99.90;;;;;;6172799;28;20242;-68
2022/04/22 00:30:13;;;;;;;1.70;1.70;;;7.90;99.90;;;;;;6187946;28;20235;-68
2022/04/22 00:33:19;;;;;;;1.67;1.67;;;7.90;99.90;;;;;;6172389;28;20701;-65
2022/04/22 00:36:24;;;;;;;1.80;1.60;;;7.80;99.90;;;;;;6172849;28;20226;-66
2022/04/22 00:39:30;;;;;;;1.90;1.80;;;7.80;99.90;;;;;;6172092;28;20250;-67
2022/04/22 00:42:38;;;;;;;2.10;1.90;;;7.80;99.90;;;;;;6171340;28;20234;-65
2022/04/22 00:45:43;;;;;;;1.85;1.85;;;7.70;99.90;;;;;;6172874;28;20235;-65
2022/04/22 00:48:49;;;;;;;2.05;1.80;;;7.70;99.90;;;;;;6171977;28;20226;-65
2022/04/22 00:51:54;;;;;;;1.75;1.75;;;7.70;99.90;;;;;;6170800;28;20566;-65
2022/04/22 00:54:59;;;;;;;3.17;1.85;;;7.70;99.90;;;;;;6154487;28;20242;-66
2022/04/22 00:58:07;;;;;;;1.70;1.70;;;7.70;99.90;;;;;;6171746;28;20233;-66
2022/04/22 01:01:13;;;;;;;2.00;2.00;;;7.70;99.90;;;;;;6172423;28;20234;-65
2022/04/22 01:11:07;;;;;;;1.80;1.70;;;7.60;99.90;;;;;;6170466;28;20227;-67
2022/04/22 01:14:16;;;;;;;1.80;1.80;;;7.50;99.90;;;;;;6171033;28;20226;-65
2022/04/22 01:17:22;;;;;;;2.05;1.90;;;7.50;99.90;;;;;;6171649;28;20530;-67
2022/04/22 01:20:28;;;;;;;1.75;1.70;;;7.40;99.90;;;;;;6172204;28;20526;-66
2022/04/22 01:23:36;;;;;;;2.00;2.00;;;7.40;99.90;;;;;;6171718;28;20230;-66
2022/04/22 01:26:41;;;;;;;1.77;1.75;;;7.40;99.90;;;;;;6171296;28;20242;-67
2022/04/22 01:29:48;;;;;;;2.20;1.80;;;7.40;99.90;;;;;;6171310;28;20242;-66
2022/04/22 01:32:56;;;;;;;2.45;1.92;;;7.50;99.90;;;;;;6171831;28;20230;-65
2022/04/22 01:36:01;;;;;;;1.83;1.80;;;7.50;99.90;;;;;;6175717;28;20735;-65
2022/04/22 01:39:08;;;;;;;1.90;1.80;;;7.40;99.90;;;;;;6176531;28;20227;-66
2022/04/22 01:42:13;;;;;;;1.60;1.60;;;7.40;99.90;;;;;;6176610;28;20576;-67
2022/04/22 01:45:19;;;;;;;1.90;1.80;;;7.40;99.90;;;;;;6177187;28;20238;-66
2022/04/22 01:48:24;;;;;;;1.55;1.55;;;7.30;99.90;;;;;;6176042;28;20227;-66
2022/04/22 01:51:30;;;;;;;3.22;1.80;;;7.30;99.90;;;;;;6176812;28;20238;-66
2022/04/22 01:54:36;;;;;;;1.90;1.90;;;7.30;99.90;;;;;;6175824;28;20572;-66
2022/04/22 01:57:42;;;;;;;2.90;2.20;;;7.20;99.90;;;;;;6158516;28;20243;-66
2022/04/22 02:00:47;;;;;;;1.88;1.77;;;7.20;99.90;;;;;;6176667;28;20241;-66
2022/04/22 02:03:53;;;;;;;1.80;1.80;;;7.20;99.90;;;;;;6175746;28;20241;-66
2022/04/22 02:07:00;;;;;;;2.00;1.90;;;7.20;99.90;;;;;;6173535;28;20298;-67
2022/04/22 02:10:08;;;;;;;1.88;1.88;;;7.20;99.90;;;;;;6166465;28;20238;-66
2022/04/22 02:13:15;;;;;;;1.83;1.80;;;7.20;99.90;;;;;;6176267;28;20270;-65
2022/04/22 02:16:20;;;;;;;2.15;2.03;;;7.20;99.90;;;;;;6176477;28;20230;-65
2022/04/22 02:19:26;;;;;;;2.40;1.90;;;7.10;99.90;;;;;;6175717;28;20234;-66
2022/04/22 02:22:31;;;;;;;2.08;2.00;;;7.00;99.90;;;;;;6175368;28;20617;-66
2022/04/22 02:25:38;;;;;;;5.63;2.17;;;7.10;99.90;;;;;;6175625;28;20595;-66
2022/04/22 02:28:42;;;;;;;2.20;2.10;;;7.00;99.90;;;;;;6175474;28;20720;-68
2022/04/22 02:31:48;;;;;;;2.07;2.07;;;7.00;99.90;;;;;;6175684;28;20246;-67
2022/04/22 02:34:53;;;;;;;2.10;2.00;;;6.90;99.90;;;;;;6174577;28;20238;-65
2022/04/22 02:37:58;;;;;;;5.47;2.10;;;6.80;99.90;;;;;;6175822;28;20226;-66
2022/04/22 02:47:53;;;;;;;2.10;2.00;;;6.70;99.90;;;;;;6172917;28;20640;-67
2022/04/22 02:50:59;;;;;;;1.93;1.93;;;6.70;99.90;;;;;;6175649;28;20238;-66
2022/04/22 02:54:05;;;;;;;2.00;1.90;;;6.80;99.90;;;;;;6174932;28;20235;-66
2022/04/22 02:57:14;;;;;;;2.03;1.92;;;6.70;99.90;;;;;;6174943;28;20235;-66
2022/04/22 03:00:20;;;;;;;2.20;1.77;;;6.80;99.90;;;;;;6175346;28;20234;-66
2022/04/22 03:03:25;;;;;;;2.27;2.17;;;6.70;99.90;;;;;;6173603;28;20252;-66
2022/04/22 03:06:31;;;;;;;1.90;1.90;;;6.80;99.90;;;;;;6175076;28;20226;-66
2022/04/22 03:09:36;;;;;;;1.90;1.80;;;6.80;99.90;;;;;;6173902;28;20226;-66
2022/04/22 03:12:43;;;;;;;3.40;2.00;;;6.70;99.90;;;;;;6150395;28;20262;-66
2022/04/22 03:15:49;;;;;;;4.70;2.00;;;6.60;99.90;;;;;;6151327;28;20560;-67
2022/04/22 03:18:54;;;;;;;2.10;2.07;;;6.60;99.90;;;;;;6155680;28;20227;-66
2022/04/22 03:22:00;;;;;;;1.97;1.97;;;6.50;99.90;;;;;;6174335;28;20257;-68
2022/04/22 03:25:07;;;;;;;1.90;1.90;;;6.60;99.90;;;;;;6174284;28;20715;-66
2022/04/22 03:28:18;;;;;;;2.23;2.00;;;6.50;99.90;;;;;;6174124;28;20585;-65
2022/04/22 03:31:23;;;;;;;2.00;1.90;;;6.60;99.90;;;;;;6173919;28;20249;-65
2022/04/22 03:34:28;;;;;;;2.10;2.00;;;6.50;99.90;;;;;;6162756;28;20654;-65
2022/04/22 03:37:34;;;;;;;1.80;1.80;;;6.60;99.90;;;;;;6175012;28;20265;-66
2022/04/22 03:40:39;;;;;;;2.33;2.03;;;6.60;99.90;;;;;;6178088;28;20238;-65
2022/04/22 03:43:46;;;;;;;1.90;1.90;;;6.50;99.90;;;;;;6178404;28;20256;-66
2022/04/22 03:46:52;;;;;;;2.00;2.00;;;6.50;99.90;;;;;;6176368;28;20242;-66
2022/04/22 03:49:58;;;;;;;1.93;1.93;;;6.60;99.90;;;;;;6173763;28;20246;-65
2022/04/22 03:53:03;;;;;;;2.30;2.10;;;6.50;99.90;;;;;;6173332;28;20234;-66
2022/04/22 03:59:35;;;;;;;2.87;2.23;;;6.50;99.90;;;;;;6171903;28;20674;-66
2022/04/22 04:02:40;;;;;;;2.07;1.97;;;6.50;99.90;;;;;;6172834;28;20231;-66
2022/04/22 04:05:48;;;;;;;2.00;1.90;;;6.50;99.90;;;;;;6173271;28;20243;-66
2022/04/22 04:25:43;;;;;;;1.93;1.93;;;6.60;99.90;;;;;;6175389;28;20227;-65
2022/04/22 04:28:50;;;;;;;3.57;1.90;;;6.60;99.90;;;;;;6172752;28;20234;-65
2022/04/22 04:31:57;;;;;;;1.83;1.80;;;6.60;99.90;;;;;;6180429;28;20238;-65
2022/04/22 04:35:03;;;;;;;1.90;1.77;;;6.70;99.90;;;;;;6182081;28;20222;-64
2022/04/22 04:38:09;;;;;;;2.97;1.97;;;6.70;99.90;;;;;;6174561;28;20324;-66
2022/04/22 04:41:14;;;;;;;2.05;1.90;;;6.80;99.90;;;;;;6172903;28;20237;-67
2022/04/22 04:44:20;;;;;;;1.90;1.90;;;6.70;99.90;;;;;;6172650;28;20238;-65
2022/04/22 04:47:27;;;;;;;3.50;1.90;;;6.70;99.90;;;;;;6172348;28;20237;-66
2022/04/22 04:50:32;;;;;;;2.43;1.90;;;6.80;99.90;;;;;;6172753;28;20242;-65
2022/04/22 04:53:38;;;;;;;1.93;1.90;;;6.90;99.90;;;;;;6172274;28;20254;-67
2022/04/22 04:56:43;;;;;;;2.00;1.90;;;6.90;99.90;;;;;;6172389;28;20634;-66
2022/04/22 04:59:48;;;;;;;1.95;1.90;;;6.90;99.90;;;;;;6172208;28;20234;-66
2022/04/22 05:02:56;;;;;;;3.03;1.90;;;6.90;99.90;;;;;;6171652;28;20241;-66
2022/04/22 05:06:06;;;;;;;2.85;1.90;;;7.10;99.90;;;;;;6171929;28;20235;-66
2022/04/22 05:09:11;;;;;;;2.70;2.30;;;7.20;99.90;;;;;;6162808;28;20692;-67
2022/04/22 05:12:16;;;;;;;2.57;1.73;;;7.20;99.90;;;;;;6171356;28;20230;-67
2022/04/22 05:15:23;;;;;;;1.80;1.70;;;7.30;99.90;;;;;;6177562;28;20245;-65
2022/04/22 05:18:30;;;;;;;2.83;1.90;;;7.20;99.90;;;;;;6176573;28;20230;-66
2022/04/22 05:21:37;;;;;;;2.03;1.83;;;7.30;99.90;;;;;;6176665;28;20249;-66
2022/04/22 05:24:42;;;;;;;2.07;1.80;;;7.40;99.90;;;;;;6176518;28;20247;-66
2022/04/22 05:27:47;;;;;;;3.97;1.83;;;7.40;99.90;;;;;;6176780;28;20234;-66
2022/04/22 05:34:17;;;;;;;2.13;1.52;;;7.50;99.90;;;;;;6176762;28;20234;-66
2022/04/22 05:37:22;;;;;;;4.90;1.92;;;7.60;99.90;;;;;;6176843;28;20230;-66
2022/04/22 05:40:30;;;;;;;8.95;2.22;;;7.70;99.90;;;;;;6176793;28;20241;-65
2022/04/22 05:43:36;;;;;;;4.78;1.70;;;7.80;99.90;;;;;;6176598;28;20238;-66
2022/04/22 05:46:42;;;;;;;1.63;1.63;;;7.80;99.90;;;;;;6176273;28;20226;-66
2022/04/22 05:49:49;;;;;;;1.80;1.77;;;7.80;99.90;;;;;;6177007;28;20240;-67
2022/04/22 05:52:55;;;;;;;1.83;1.80;;;7.90;99.90;;;;;;6176411;28;20673;-66
2022/04/22 05:56:00;;;;;;;2.05;1.60;;;8.00;99.90;;;;;;6175843;28;20234;-66
2022/04/22 05:59:06;;;;;;;1.52;1.50;;;8.00;99.90;;;;;;6176678;28;20241;-66
2022/04/22 06:02:11;;;;;;;2.03;1.50;;;8.20;99.90;;;;;;6175544;28;20230;-66
2022/04/22 06:05:20;;;;;;;1.42;1.42;;;8.20;99.90;;;;;;6175946;28;20231;-68
2022/04/22 06:11:48;;;;;;;1.85;1.50;;;8.40;99.90;;;;;;6175605;28;20234;-67
2022/04/22 06:14:54;;;;;;;1.35;1.35;;;8.40;99.90;;;;;;6176192;28;20253;-67
2022/04/22 06:18:01;;;;;;;2.28;1.17;;;8.60;99.90;;;;;;6175412;28;20238;-68
2022/04/22 06:21:08;;;;;;;1.50;1.30;;;8.70;99.90;;;;;;6175602;28;20237;-66
2022/04/22 06:24:15;;;;;;;1.42;1.42;;;8.80;99.90;;;;;;6175941;28;20234;-66
2022/04/22 06:27:28;;;;;;;4.63;1.33;;;9.00;99.90;;;;;;6175344;28;20230;-67
2022/04/22 06:30:34;;;;;;;1.40;1.40;;;9.20;99.90;;;;;;6176082;28;20262;-66
2022/04/22 06:33:40;;;;;;;3.65;1.55;;;9.30;99.90;;;;;;6175663;28;20235;-67
2022/04/22 06:36:48;;;;;;;1.52;1.42;;;9.50;99.90;;;;;;6174998;28;20231;-66
2022/04/22 06:46:41;;;;;;;2.17;1.70;;;10.10;99.90;;;;;;6157894;28;20243;-66
2022/04/22 06:49:47;;;;;;;1.48;1.48;;;10.20;99.90;;;;;;6175807;28;20226;-66
2022/04/22 06:52:55;;;;;;;1.40;1.40;;;10.20;99.90;;;;;;6175292;28;20242;-65
2022/04/22 06:56:02;;;;;;;1.58;1.40;;;10.30;99.90;;;;;;6157454;28;20234;-67
2022/04/22 06:59:10;;;;;;;4.47;1.45;;;10.50;99.70;;;;;;6175440;28;20589;-67
2022/04/22 07:02:16;;;;;;;3.40;1.70;;;10.50;98.80;;;;;;6175082;28;20237;-67
2022/04/22 07:05:23;;;;;;;1.73;1.23;;;10.60;99.20;;;;;;6175307;28;20257;-67
2022/04/22 07:08:30;;;;;;;1.55;1.45;;;10.60;98.80;;;;;;6174306;28;20239;-67
2022/04/22 07:11:36;;;;;;;2.00;1.70;;;10.70;98.60;;;;;;6175094;28;20666;-67
2022/04/22 07:14:45;;;;;;;1.73;1.50;;;10.80;98.60;;;;;;6175362;28;20245;-67
2022/04/22 07:17:51;;;;;;;1.38;1.38;;;10.90;97.80;;;;;;6174643;28;20231;-67
2022/04/22 07:20:58;;;;;;;1.95;1.42;;;10.90;97.60;;;;;;6174433;28;20241;-67
2022/04/22 07:24:06;;;;;;;1.38;1.38;;;10.90;97.70;;;;;;6174843;28;20586;-66
2022/04/22 07:27:11;;;;;;;1.33;1.33;;;10.90;97.20;;;;;;6173686;28;20226;-66
2022/04/22 07:30:20;;;;;;;5.00;1.58;;;11.00;97.50;;;;;;6174311;28;20226;-66
2022/04/22 07:33:26;;;;;;;2.42;1.13;;;11.00;97.20;;;;;;6174053;28;20237;-68
2022/04/22 07:36:32;;;;;;;1.85;1.27;;;11.00;97.00;;;;;;6173782;28;20246;-67
2022/04/22 07:39:41;;;;;;;1.05;1.05;;;11.00;96.90;;;;;;6174632;28;20230;-67
2022/04/22 07:49:36;;;;;;;1.25;1.25;;;11.00;96.40;;;;;;6170878;28;20238;-65
2022/04/22 07:52:44;;;;;;;2.00;1.40;;;11.10;96.20;;;;;;6173467;28;20238;-66
2022/04/22 07:55:52;;;;;;;1.33;1.33;;;11.10;96.30;;;;;;6173496;28;20689;-69
2022/04/22 07:58:57;;;;;;;1.45;1.45;;;11.10;96.00;;;;;;6173945;28;20242;-67
2022/04/22 08:02:02;;;;;;;4.38;1.17;;;11.20;96.10;;;;;;6173172;28;20227;-65
2022/04/22 08:05:11;;;;;;;1.42;1.42;;;11.20;96.30;;;;;;6173342;28;20261;-67
2022/04/22 08:08:17;;;;;;;2.17;1.40;;;11.30;95.80;;;;;;6173268;28;20227;-66
2022/04/22 08:11:23;;;;;;;1.13;1.13;;;11.30;96.20;;;;;;6173201;28;20720;-67
2022/04/22 08:14:28;;;;;;;1.25;1.25;;;11.30;95.70;;;;;;6173346;28;20242;-68
2022/04/22 08:17:37;;;;;;;1.30;1.30;;;11.30;95.30;;;;;;6172835;28;20708;-67
2022/04/22 08:20:42;;;;;;;1.40;1.40;;;11.30;95.20;;;;;;6172926;28;20249;-67
2022/04/22 08:23:48;;;;;;;1.27;1.17;;;11.30;95.30;;;;;;6173393;28;20242;-66
2022/04/22 08:26:56;;;;;;;1.50;1.50;;;11.30;95.10;;;;;;6173163;28;20678;-66
2022/04/22 08:30:02;;;;;;;1.38;1.15;;;11.40;95.00;;;;;;6173175;28;20684;-67
2022/04/22 08:33:07;;;;;;;1.33;1.27;;;11.40;94.40;;;;;;6172703;28;20230;-67
2022/04/22 08:36:12;;;;;;;1.85;1.33;;;11.40;94.70;;;;;;6172659;28;20261;-68
2022/04/22 08:39:18;;;;;;;2.65;1.05;;;11.50;94.70;;;;;;6172863;28;20227;-67
2022/04/22 08:42:25;;;;;;;1.30;1.17;;;11.50;94.30;;;;;;6171683;28;20226;-67
2022/04/22 08:45:45;;;;;;;1.75;1.20;;;11.40;94.30;;;;;;6171587;28;20235;-68
2022/04/22 08:52:17;;;;;;;1.33;1.10;;;11.40;93.90;;;;;;6172554;28;20231;-66
2022/04/22 08:55:22;;;;;;;1.77;1.30;;;11.50;93.70;;;;;;6171503;28;20234;-67
2022/04/22 08:58:29;;;;;;;2.95;1.67;;;11.40;93.50;;;;;;6155144;28;20234;-67
2022/04/22 09:01:35;;;;;;;1.73;1.27;;;11.40;93.60;;;;;;6172463;28;20234;-66
2022/04/22 09:04:40;;;;;;;1.10;1.10;;;11.40;93.20;;;;;;6172390;28;20756;-67
2022/04/22 09:07:46;;;;;;;1.20;1.20;;;11.50;93.10;;;;;;6171786;28;20584;-67
2022/04/22 09:10:54;;;;;;;2.00;1.40;;;11.50;92.80;;;;;;6172261;28;20261;-67
2022/04/22 09:14:03;;;;;;;1.38;1.30;;;11.60;92.50;;;;;;6172881;28;20238;-67
2022/04/22 09:17:11;;;;;;;1.15;1.15;;;11.60;92.20;;;;;;6172349;28;20585;-66
2022/04/22 09:20:17;;;;;;;1.00;1.00;;;11.60;92.30;;;;;;6155669;28;20244;-66
2022/04/22 09:23:31;;;;;;;1.67;1.30;;;11.60;92.60;;;;;;6172384;28;20249;-67
2022/04/22 09:26:36;;;;;;;1.10;1.10;;;11.70;92.70;;;;;;6172122;28;20234;-67
2022/04/22 09:29:45;;;;;;;1.40;1.30;;;11.80;92.30;;;;;;6172596;28;20241;-66
2022/04/22 09:32:50;;;;;;;4.32;1.25;;;11.80;91.90;;;;;;6171609;28;20241;-67
2022/04/22 09:42:55;;;;;;;1.40;1.40;;;11.80;91.90;;;;;;6179038;28;20247;-66
2022/04/22 09:46:02;;;;;;;1.85;1.42;;;11.80;91.80;;;;;;6183401;28;20257;-66
2022/04/22 09:49:11;;;;;;;3.17;1.42;;;11.80;92.00;;;;;;6180257;28;20242;-67
2022/04/22 09:52:26;;;;;;;1.48;1.20;;;11.90;92.20;;;;;;6172126;28;20312;-67
2022/04/22 09:55:32;;;;;;;1.55;1.15;;;11.90;92.00;;;;;;6173384;28;20256;-67
2022/04/22 09:58:38;;;;;;;1.30;1.30;;;12.00;91.80;;;;;;6176383;28;20574;-67
2022/04/22 10:01:44;;;;;;;2.42;1.42;;;12.00;91.80;;;;;;6176442;28;20604;-67
2022/04/22 10:05:07;;;;;;;2.70;1.23;;;12.10;91.60;;;;;;6176228;28;20242;-66
2022/04/22 10:08:17;;;;;;;1.15;1.15;;;12.10;91.40;;;;;;6174451;28;20240;-67
2022/04/22 10:11:25;;;;;;;1.60;1.50;;;12.20;91.20;;;;;;6175600;28;20429;-67
2022/04/22 10:14:36;;;;;;;10.13;1.40;;;12.10;91.00;;;;;;6175977;28;20230;-66
2022/04/22 10:17:46;;;;;;;1.95;1.58;;;12.20;91.00;;;;;;6175175;28;20246;-67
2022/04/22 10:20:51;;;;;;;6.57;1.40;;;12.30;90.80;;;;;;6175293;28;20252;-67
2022/04/22 10:23:58;;;;;;;1.50;1.40;;;12.30;90.60;;;;;;6175557;28;20230;-67
2022/04/22 10:27:07;;;;;;;1.60;1.60;;;12.40;90.50;;;;;;6175556;28;20234;-67
2022/04/22 10:30:14;;;;;;;1.40;1.40;;;12.50;90.50;;;;;;6175834;28;20571;-67
2022/04/22 10:33:25;;;;;;;1.30;1.30;;;12.50;90.30;;;;;;6175430;28;20234;-67
2022/04/22 10:36:33;;;;;;;2.38;1.25;;;12.60;89.30;;;;;;6175156;28;20235;-68
2022/04/22 10:39:39;;;;;;;1.25;1.25;;;12.60;89.50;;;;;;6176021;28;20697;-66
2022/04/22 10:42:44;;;;;;;3.95;1.70;;;12.70;88.70;;;;;;6175942;28;20237;-67
2022/04/22 10:49:16;;;;;;;3.58;1.50;;;12.90;87.80;;;;;;6175844;28;20727;-67
2022/04/22 10:52:22;;;;;;;4.95;1.58;;;13.00;87.30;;;;;;6175043;28;20234;-67
2022/04/22 10:55:27;;;;;;;1.45;1.40;;;13.00;85.90;;;;;;6175586;28;20243;-67
2022/04/22 10:58:32;;;;;;;1.30;1.30;;;13.00;85.30;;;;;;6174712;28;20246;-67
2022/04/22 11:01:41;;;;;;;1.30;1.20;;;13.10;84.30;;;;;;6174810;28;20711;-67
2022/04/22 11:04:47;;;;;;;1.55;1.45;;;13.20;83.60;;;;;;6176168;28;20261;-66
2022/04/22 11:07:56;;;;;;;4.93;1.63;;;13.30;82.70;;;;;;6175247;28;20235;-67
2022/04/22 11:11:10;;;;;;;19.23;2.25;;;13.40;80.40;;;;;;6176180;28;20230;-67
2022/04/22 11:14:20;;;;;;;5.70;1.50;;;13.50;81.20;;;;;;6174683;28;20693;-67
2022/04/22 11:17:35;;;;;;;2.83;1.40;;;13.50;78.60;;;;;;6175142;28;20247;-68
2022/04/22 11:20:47;;;;;;;1.42;1.42;;;13.50;76.90;;;;;;6174080;28;20235;-68
2022/04/22 11:23:52;;;;;;;1.42;1.30;;;13.60;75.40;;;;;;6174639;28;20286;-67
2022/04/22 11:27:07;;;;;;;1.30;1.20;;;13.60;74.00;;;;;;6173912;28;20237;-67
2022/04/22 11:30:14;;;;;;;2.25;1.35;;;13.50;71.60;;;;;;6174906;28;20599;-67
2022/04/22 11:33:22;;;;;;;1.15;1.15;;;13.50;72.30;;;;;;6174131;28;20234;-67
2022/04/22 11:36:29;;;;;;;3.88;1.33;;;13.50;73.10;;;;;;6173940;28;20246;-68
2022/04/22 11:39:36;;;;;;;1.90;1.27;;;13.60;72.20;;;;;;6174045;28;20235;-67
2022/04/22 11:42:43;;;;;;;1.40;1.30;;;13.80;71.90;;;;;;6176157;28;20249;-66
2022/04/22 11:45:50;;;;;;;2.35;1.63;;;13.80;70.60;;;;;;6175854;28;20230;-67
2022/04/22 11:48:57;;;;;;;1.38;1.13;;;13.80;71.10;;;;;;6158566;28;20250;-68
2022/04/22 11:52:05;;;;;;;1.30;1.30;;;13.80;69.70;;;;;;6174422;28;20238;-68
2022/04/22 11:55:12;;;;;;;1.30;1.30;;;13.70;70.50;;;;;;6173994;28;20230;-67
2022/04/22 11:58:20;;;;;;;1.08;1.08;;;13.80;69.20;;;;;;6173938;28;20238;-67
2022/04/22 12:08:29;;;;;;;1.70;1.60;;;13.90;67.50;;;;;;6158771;28;20280;-68
2022/04/22 12:11:41;;;;;;;1.30;1.13;;;14.10;65.30;;;;;;6172908;28;20238;-68
2022/04/22 12:14:46;;;;;;;1.17;1.17;;;14.00;66.50;;;;;;6173357;28;20653;-66
2022/04/22 12:17:51;;;;;;;1.30;1.30;;;14.20;66.00;;;;;;6172741;28;20233;-67
2022/04/22 12:20:59;;;;;;;1.33;1.23;;;14.20;65.30;;;;;;6170993;28;20234;-67
2022/04/22 12:24:07;;;;;;;3.47;1.20;;;14.10;65.10;;;;;;6172786;28;20226;-67
2022/04/22 12:27:22;;;;;;;1.10;1.10;;;14.20;64.70;;;;;;6172320;28;20241;-68
2022/04/22 12:30:36;;;;;;;1.25;1.25;;;14.20;64.40;;;;;;6173375;28;20237;-68
2022/04/22 12:33:41;;;;;;;1.55;1.55;;;14.20;64.70;;;;;;6172641;28;20231;-67
2022/04/22 12:36:57;;;;;;;1.10;1.10;;;14.30;63.50;;;;;;6172581;28;20238;-67
2022/04/22 12:40:12;;;;;;;2.03;1.17;;;14.30;63.60;;;;;;6172709;28;20227;-67
2022/04/22 12:43:29;;;;;;;4.63;1.10;;;14.30;63.70;;;;;;6172438;28;20254;-67
2022/04/22 12:53:34;;;;;;;2.55;1.17;;;14.60;60.10;;;;;;6171951;28;20603;-66
2022/04/22 12:56:53;;;;;;;1.27;1.27;;;14.60;59.80;;;;;;6173055;28;20694;-66
2022/04/22 12:59:59;;;;;;;1.98;1.23;;;14.70;59.90;;;;;;6174599;28;20253;-67
2022/04/22 13:03:37;;;;;;;1.77;1.40;;;14.70;59.50;;;;;;6172867;28;20282;-67
2022/04/22 13:06:44;;;;;;;1.63;1.30;;;14.70;59.80;;;;;;6173255;28;20238;-67
2022/04/22 13:09:49;;;;;;;2.63;1.30;;;14.70;59.60;;;;;;6172971;28;20230;-69
2022/04/22 13:12:56;;;;;;;1.58;1.40;;;14.80;58.00;;;;;;6171751;28;20728;-67
2022/04/22 13:16:02;;;;;;;2.47;1.33;;;14.80;58.40;;;;;;6172906;28;20230;-67
2022/04/22 13:19:07;;;;;;;1.40;1.40;;;14.80;58.50;;;;;;6172387;28;20240;-67
2022/04/22 13:22:13;;;;;;;1.50;1.40;;;14.90;58.10;;;;;;6172035;28;20630;-65
2022/04/22 13:25:19;;;;;;;3.63;1.50;;;14.90;58.00;;;;;;6171933;28;20223;-67
2022/04/22 13:28:26;;;;;;;1.15;1.15;;;15.00;56.90;;;;;;6172094;28;20702;-66
2022/04/22 13:31:31;;;;;;;3.95;1.30;;;14.90;57.70;;;;;;6174575;28;20234;-68
2022/04/22 13:34:38;;;;;;;1.05;1.05;;;14.90;57.30;;;;;;6177604;28;20226;-67
2022/04/22 13:37:43;;;;;;;1.45;1.42;;;15.00;57.80;;;;;;6175338;28;20239;-66
2022/04/22 13:40:48;;;;;;;1.20;1.20;;;15.10;57.40;;;;;;6176156;28;20261;-67
2022/04/22 13:43:56;;;;;;;1.60;1.38;;;15.10;57.20;;;;;;6176729;28;20230;-68
2022/04/22 13:53:49;;;;;;;1.63;1.30;;;15.20;57.70;;;;;;6151563;28;20237;-67
2022/04/22 13:56:54;;;;;;;1.30;1.30;;;15.20;57.00;;;;;;6176396;28;20245;-67
2022/04/22 14:00:01;;;;;;;1.60;1.17;;;15.30;56.70;;;;;;6176684;28;20234;-68
2022/04/22 14:03:18;;;;;;;3.22;1.45;;;15.20;57.40;;;;;;6175508;28;20231;-66
2022/04/22 14:06:24;;;;;;;1.20;1.20;;;15.40;56.10;;;;;;6175472;28;20238;-67
2022/04/22 14:09:29;;;;;;;2.53;1.10;;;15.40;56.40;;;;;;6176761;28;20237;-68
2022/04/22 14:12:35;;;;;;;1.27;1.27;;;15.40;56.10;;;;;;6175565;28;20238;-66
2022/04/22 14:15:41;;;;;;;1.38;1.25;;;15.40;56.30;;;;;;6175598;28;20236;-67
2022/04/22 14:18:46;;;;;;;1.30;1.30;;;15.30;55.90;;;;;;6175622;28;20227;-67
2022/04/22 14:21:52;;;;;;;1.50;1.40;;;15.30;56.50;;;;;;6175556;28;20242;-67
2022/04/22 14:24:58;;;;;;;1.27;1.27;;;15.30;57.30;;;;;;6158755;28;20243;-67
2022/04/22 14:28:04;;;;;;;1.65;1.20;;;15.30;56.90;;;;;;6175602;28;20234;-66
2022/04/22 14:31:12;;;;;;;0.90;0.90;;;15.40;56.90;;;;;;6175447;28;20240;-67
2022/04/22 14:34:18;;;;;;;1.05;1.05;;;15.20;57.20;;;;;;6176202;28;20346;-68
2022/04/22 14:37:23;;;;;;;1.40;1.40;;;15.20;57.90;;;;;;6175342;28;20237;-66
2022/04/22 14:40:28;;;;;;;1.17;1.17;;;15.20;58.30;;;;;;6175811;28;20234;-67
2022/04/22 14:43:34;;;;;;;1.20;1.20;;;15.10;58.20;;;;;;6173744;28;20739;-67
2022/04/22 14:46:41;;;;;;;3.22;1.38;;;15.00;58.60;;;;;;6175103;28;20230;-67
2022/04/22 14:49:47;;;;;;;1.70;1.65;;;15.10;59.50;;;;;;6176048;28;20591;-68
2022/04/22 14:52:53;;;;;;;2.70;1.60;;;14.90;59.20;;;;;;6175215;28;20719;-67
2022/04/22 14:55:58;;;;;;;3.17;1.50;;;15.00;59.70;;;;;;6174846;28;20226;-66
2022/04/22 14:59:04;;;;;;;3.50;2.70;;;15.00;60.10;;;;;;6175315;28;20235;-66
2022/04/22 15:02:12;;;;;;;2.17;2.08;;;14.90;60.50;;;;;;6175405;28;20231;-66
2022/04/22 15:05:18;;;;;;;4.13;1.80;;;15.00;60.30;;;;;;6176799;28;20239;-66
2022/04/22 15:08:24;;;;;;;4.13;2.60;;;14.90;60.10;;;;;;6166891;28;20246;-66
2022/04/22 15:11:30;;;;;;;3.60;3.10;;;14.80;60.10;;;;;;6169364;28;20246;-66
2022/04/22 15:14:35;;;;;;;9.02;2.85;;;14.80;61.60;;;;;;6193860;28;20298;-65
2022/04/22 15:24:26;;;;;;;2.70;2.60;;;14.70;61.80;;;;;;6139189;28;20242;-67
2022/04/22 15:27:32;;;;;;;3.10;2.80;;;14.70;61.50;;;;;;6149604;28;20410;-67
2022/04/22 15:31:12;;;;;;;3.20;1.95;;;14.70;62.60;;;;;;6149948;28;20287;-67
2022/04/22 15:34:19;;;;;;;4.05;1.85;;;14.80;62.00;;;;;;6150197;28;20702;-67
2022/04/22 15:37:24;;;;;;;2.22;2.13;;;14.70;62.20;;;;;;6150052;28;20231;-66
2022/04/22 15:40:30;;;;;;;4.68;1.90;;;14.60;62.70;;;;;;6148008;28;20250;-67
2022/04/22 15:43:36;;;;;;;8.20;1.77;;;14.60;63.00;;;;;;6156879;28;20231;-67
2022/04/22 15:46:41;;;;;;;6.20;2.05;;;14.60;63.00;;;;;;6149640;28;20694;-67
2022/04/22 15:49:48;;;;;;;2.90;2.13;;;14.60;62.80;;;;;;6150639;28;20254;-68
2022/04/22 15:52:54;;;;;;;4.60;1.77;;;14.50;62.80;;;;;;6149130;28;20257;-67
2022/04/22 15:56:00;;;;;;;5.95;1.55;;;14.50;64.10;;;;;;6149227;28;20279;-67
2022/04/22 15:59:08;;;;;;;1.75;1.65;;;14.40;64.40;;;;;;6150144;28;20231;-66
2022/04/22 16:02:13;;;;;;;1.95;1.85;;;14.40;65.40;;;;;;6149746;28;20593;-69
2022/04/22 16:05:20;;;;;;;1.92;1.60;;;14.30;66.00;;;;;;6149274;28;20246;-67
2022/04/22 16:08:26;;;;;;;1.70;1.70;;;14.20;66.70;;;;;;6148654;28;20235;-67
2022/04/22 16:18:18;;;;;;;1.65;1.65;;;14.20;69.40;;;;;;6151464;28;20234;-68
2022/04/22 16:21:25;;;;;;;2.60;2.17;;;14.10;70.90;;;;;;6172917;28;20690;-67
2022/04/22 16:24:31;;;;;;;2.10;2.10;;;14.10;72.00;;;;;;6173103;28;20672;-67
2022/04/22 16:27:37;;;;;;;4.15;2.45;;;14.00;73.10;;;;;;6172538;28;20677;-66
2022/04/22 16:30:44;;;;;;;12.02;2.45;;;14.10;73.30;;;;;;6172275;28;20249;-66
2022/04/22 16:33:49;;;;;;;3.90;2.50;;;14.00;73.90;;;;;;6173316;28;20242;-67
2022/04/22 16:36:58;;;;;;;3.45;1.70;;;13.90;75.00;;;;;;6155550;28;20245;-67
2022/04/22 16:40:04;;;;;;;13.15;1.70;;;13.90;75.50;;;;;;6173150;28;20242;-66
2022/04/22 16:43:11;;;;;;;3.97;1.67;;;13.90;76.00;;;;;;6172289;28;20239;-67
2022/04/22 16:46:16;;;;;;;1.65;1.55;;;13.80;76.20;;;;;;6172218;28;20227;-67
2022/04/22 16:49:24;;;;;;;1.77;1.67;;;13.80;76.00;;;;;;6173039;28;20234;-68
2022/04/22 16:52:31;;;;;;;2.72;1.70;;;13.70;76.90;;;;;;6172321;28;20265;-66
2022/04/22 16:55:37;;;;;;;4.53;1.83;;;13.70;77.80;;;;;;6172337;28;20249;-70
2022/04/22 16:58:42;;;;;;;2.20;1.45;;;13.60;78.80;;;;;;6172813;28;20267;-67
2022/04/22 17:01:48;;;;;;;2.00;1.77;;;13.40;78.90;;;;;;6171891;28;20238;-67
2022/04/22 17:04:54;;;;;;;2.67;1.55;;;13.40;80.60;;;;;;6154394;28;20249;-67
2022/04/22 17:08:01;;;;;;;1.73;1.73;;;13.30;81.20;;;;;;6172071;28;20600;-67
2022/04/22 17:11:06;;;;;;;3.13;1.63;;;13.10;81.90;;;;;;6171698;28;20234;-68
2022/04/22 17:24:22;;;;;;;3.00;1.52;;;12.80;86.60;;;;;;6172303;28;20243;-68
2022/04/22 17:27:27;;;;;;;3.75;1.98;;;12.80;87.90;;;;;;6172467;28;20260;-68
2022/04/22 17:30:33;;;;;;;1.80;1.67;;;12.60;88.70;;;;;;6172257;28;20611;-67
2022/04/22 17:33:38;;;;;;;1.60;1.60;;;12.50;89.70;;;;;;6172380;28;20544;-67
2022/04/22 17:36:44;;;;;;;4.63;1.50;;;12.50;90.20;;;;;;6171326;28;20246;-68
2022/04/22 17:39:50;;;;;;;2.05;1.88;;;12.40;90.70;;;;;;6171602;28;20237;-67
2022/04/22 17:42:55;;;;;;;1.30;1.30;;;12.30;91.10;;;;;;6171014;28;20268;-67
2022/04/22 17:46:01;;;;;;;5.68;1.42;;;12.30;91.30;;;;;;6171083;28;20238;-67
2022/04/22 17:49:06;;;;;;;1.70;1.48;;;12.20;91.60;;;;;;6171538;28;20553;-68
2022/04/22 17:52:11;;;;;;;1.58;1.23;;;12.20;92.00;;;;;;6171204;28;20231;-67
2022/04/22 17:55:20;;;;;;;6.00;1.70;;;12.10;92.60;;;;;;6154767;28;20232;-67
2022/04/22 17:58:25;;;;;;;1.80;1.80;;;12.00;93.20;;;;;;6171370;28;20245;-67
2022/04/22 18:01:31;;;;;;;2.47;1.60;;;12.00;93.50;;;;;;6171191;28;20231;-68
2022/04/22 18:04:36;;;;;;;1.80;1.70;;;12.00;93.80;;;;;;6171102;28;20231;-68
2022/04/22 18:07:42;;;;;;;2.10;2.00;;;11.90;94.20;;;;;;6170822;28;20241;-67
2022/04/22 18:10:49;;;;;;;1.73;1.67;;;11.80;94.80;;;;;;6159756;28;20239;-67